Time;durP1;ratioP1;P1;durP2;ratioP2;P2;SDS_P1;SDS_P2;PMS_P1;PMS_P2;Temp;Humidity;BMP_temperature;BMP_pressure;BME280_temperature;BME280_humidity;BME280_pressure;Samples;Min_cycle;Max_cycle;Signal;HPM_P1;HPM_P2
2021/10/16 00:01:20;;;;;;;10.60;8.68;;;;;;;;;;5057890;28;20033;-59
2021/10/16 00:04:15;;;;;;;10.77;9.32;;;;;;;;;;5054517;28;20037;-59
2021/10/16 00:06:52;;;;;;;13.15;8.82;;;;;;;;;;5057064;28;20033;-59
2021/10/16 00:09:35;;;;;;;;;;;;;;;;;;;;;
2021/10/16 00:12:14;;;;;;;11.68;7.47;;;;;;;;;;5044935;28;20124;-57
2021/10/16 00:14:54;;;;;;;9.20;7.40;;;;;;;;;;5055979;28;20036;-57
2021/10/16 00:17:32;;;;;;;10.40;6.75;;;;;;;;;;5056613;28;20036;-57
2021/10/16 00:19:58;;;;;;;11.50;8.57;;;;;;;;;;5056466;28;20052;-57
2021/10/16 00:22:31;;;;;;;10.95;8.50;;;;;;;;;;5057116;28;20125;-57
2021/10/16 00:25:10;;;;;;;10.75;7.43;;;;;;;;;;5057089;28;20028;-57
2021/10/16 00:28:30;;;;;;;7.50;6.75;;;;;;;;;;5056523;28;20025;-57
2021/10/16 00:30:36;;;;;;;9.65;7.05;;;;;;;;;;5047210;28;20098;-57
2021/10/16 00:33:12;;;;;;;10.02;7.65;;;;;;;;;;5073077;28;20083;-57
2021/10/16 00:36:11;;;;;;;;;;;;;;;;;;;;;
2021/10/16 00:38:44;;;;;;;9.02;6.75;;;;;;;;;;5057321;28;20144;-57
2021/10/16 00:44:16;;;;;;;10.38;7.20;;;;;;;;;;5071901;28;20071;-57
2021/10/16 00:47:18;;;;;;;;;;;;;;;;;;;;;
2021/10/16 00:50:02;;;;;;;8.43;6.05;;;;;;;;;;5057467;28;20207;-57
2021/10/16 00:52:32;;;;;;;13.65;6.65;;;;;;;;;;5074570;28;20040;-57
2021/10/16 00:58:44;;;;;;;9.68;6.65;;;;;;;;;;5013608;28;20073;-57
2021/10/16 01:01:39;;;;;;;7.55;5.80;;;;;;;;;;5019640;28;20049;-57
2021/10/16 01:04:12;;;;;;;7.43;5.85;;;;;;;;;;5068207;28;20052;-57
2021/10/16 01:06:45;;;;;;;8.05;5.80;;;;;;;;;;5078589;28;20393;-58
2021/10/16 01:09:21;;;;;;;8.57;6.35;;;;;;;;;;5079429;28;20112;-57
2021/10/16 01:12:05;;;;;;;8.48;6.80;;;;;;;;;;5079954;28;20116;-57
2021/10/16 01:15:02;;;;;;;;;;;;;;;;;;;;;
2021/10/16 01:17:34;;;;;;;7.40;5.72;;;;;;;;;;5080323;28;20486;-57
2021/10/16 01:20:36;;;;;;;7.93;6.22;;;;;;;;;;5081301;28;20032;-57
2021/10/16 01:23:09;;;;;;;9.10;6.70;;;;;;;;;;5079423;28;20034;-57
2021/10/16 01:25:44;;;;;;;7.75;6.78;;;;;;;;;;5080031;28;20116;-57
2021/10/16 01:28:24;;;;;;;6.35;5.63;;;;;;;;;;5079880;28;20052;-57
2021/10/16 01:30:54;;;;;;;8.27;7.40;;;;;;;;;;5079869;28;20029;-57
2021/10/16 01:33:27;;;;;;;8.05;5.57;;;;;;;;;;5080505;28;20050;-57
2021/10/16 01:36:21;;;;;;;9.23;6.45;;;;;;;;;;5081135;28;20033;-57
2021/10/16 01:38:51;;;;;;;9.05;6.97;;;;;;;;;;5079488;28;20036;-57
2021/10/16 01:41:35;;;;;;;9.80;6.82;;;;;;;;;;5080198;28;20033;-57
2021/10/16 01:44:29;;;;;;;7.43;6.05;;;;;;;;;;5081294;28;20043;-57
2021/10/16 01:50:29;;;;;;;8.02;6.72;;;;;;;;;;5068756;28;20024;-57
2021/10/16 01:53:44;;;;;;;;;;;;;;;;;;;;;
2021/10/16 01:56:13;;;;;;;7.22;5.53;;;;;;;;;;5033001;28;20109;-57
2021/10/16 01:59:23;;;;;;;9.95;7.30;;;;;;;;;;5075302;28;20046;-57
2021/10/16 02:02:04;;;;;;;9.07;6.80;;;;;;;;;;5076574;28;20029;-57
2021/10/16 02:04:55;;;;;;;11.90;7.47;;;;;;;;;;5079812;28;20028;-57
2021/10/16 02:07:22;;;;;;;7.78;6.43;;;;;;;;;;5093854;28;20025;-57
2021/10/16 02:09:57;;;;;;;8.48;7.40;;;;;;;;;;5079544;28;20108;-57
2021/10/16 02:12:36;;;;;;;8.52;6.90;;;;;;;;;;5079818;28;20112;-57
2021/10/16 02:15:22;;;;;;;10.13;7.70;;;;;;;;;;5079300;28;20027;-57
2021/10/16 02:17:58;;;;;;;9.80;7.15;;;;;;;;;;5094418;28;20474;-57
2021/10/16 02:21:00;;;;;;;8.80;7.55;;;;;;;;;;5079517;28;20031;-59
2021/10/16 02:23:45;;;;;;;8.77;7.35;;;;;;;;;;5079772;28;20028;-59
2021/10/16 02:26:41;;;;;;;8.90;7.45;;;;;;;;;;5079936;28;20036;-59
2021/10/16 02:35:29;;;;;;;10.45;8.85;;;;;;;;;;5080000;28;20035;-59
2021/10/16 02:38:11;;;;;;;12.73;9.30;;;;;;;;;;5077866;28;20032;-59
2021/10/16 02:40:42;;;;;;;12.30;8.73;;;;;;;;;;5078647;28;20036;-59
2021/10/16 02:43:21;;;;;;;15.68;9.02;;;;;;;;;;5079182;28;20020;-59
2021/10/16 02:52:11;;;;;;;11.90;9.80;;;;;;;;;;5078321;28;19942;-59
2021/10/16 02:54:52;;;;;;;15.85;11.13;;;;;;;;;;5074793;28;20048;-59
2021/10/16 02:57:38;;;;;;;14.18;12.20;;;;;;;;;;5078419;28;20090;-59
2021/10/16 03:00:23;;;;;;;16.40;12.20;;;;;;;;;;5079256;28;20028;-59
2021/10/16 03:03:16;;;;;;;14.68;12.48;;;;;;;;;;5079180;28;20017;-59
2021/10/16 03:06:24;;;;;;;22.42;14.57;;;;;;;;;;5078781;28;20358;-59
2021/10/16 03:12:20;;;;;;;18.35;13.27;;;;;;;;;;4996782;28;20034;-58
2021/10/16 03:15:02;;;;;;;20.48;13.88;;;;;;;;;;4996032;28;20122;-59
2021/10/16 03:18:08;;;;;;;17.83;14.15;;;;;;;;;;4995580;28;20042;-59
2021/10/16 03:20:50;;;;;;;17.65;15.48;;;;;;;;;;5048790;28;20120;-59
2021/10/16 03:26:56;;;;;;;16.98;13.73;;;;;;;;;;5074350;28;20474;-59
2021/10/16 03:29:58;;;;;;;20.02;13.43;;;;;;;;;;5077630;28;20025;-59
2021/10/16 03:32:40;;;;;;;16.38;13.30;;;;;;;;;;5070656;28;20051;-59
2021/10/16 03:35:28;;;;;;;19.63;14.45;;;;;;;;;;5072752;28;20482;-59
2021/10/16 03:40:53;;;;;;;;;;;;;;;;;;5073769;28;20040;-59
2021/10/16 03:43:59;;;;;;;20.10;12.80;;;;;;;;;;5072079;28;20079;-59
2021/10/16 03:46:50;;;;;;;19.77;14.07;;;;;;;;;;5054877;28;20032;-56
2021/10/16 03:49:25;;;;;;;19.38;13.85;;;;;;;;;;5072918;28;20386;-57
2021/10/16 03:55:04;;;;;;;22.02;15.80;;;;;;;;;;5061925;28;20044;-57
2021/10/16 04:00:27;;;;;;;20.35;14.13;;;;;;;;;;5030322;28;20071;-57
2021/10/16 04:03:13;;;;;;;18.88;12.57;;;;;;;;;;5072650;28;20115;-57
2021/10/16 04:05:50;;;;;;;14.50;11.23;;;;;;;;;;5071880;28;20036;-56
2021/10/16 04:08:45;;;;;;;11.70;9.27;;;;;;;;;;5053880;28;20124;-57
2021/10/16 04:11:17;;;;;;;10.50;8.00;;;;;;;;;;5066879;28;20036;-57
2021/10/16 04:13:47;;;;;;;13.73;10.32;;;;;;;;;;5087867;28;20032;-56
2021/10/16 04:16:37;;;;;;;12.10;9.95;;;;;;;;;;5072540;28;20035;-57
2021/10/16 04:19:18;;;;;;;14.57;10.63;;;;;;;;;;5072346;28;20120;-57
2021/10/16 04:22:09;;;;;;;12.40;10.38;;;;;;;;;;5072671;28;20051;-57
2021/10/16 04:24:38;;;;;;;11.43;8.60;;;;;;;;;;5072774;28;20025;-56
2021/10/16 04:27:25;;;;;;;11.00;8.85;;;;;;;;;;5071239;28;20043;-56
2021/10/16 04:30:05;;;;;;;11.65;8.57;;;;;;;;;;5071933;28;20490;-57
2021/10/16 04:33:09;;;;;;;10.02;8.63;;;;;;;;;;5059078;28;20037;-56
2021/10/16 04:36:00;;;;;;;18.70;8.57;;;;;;;;;;5038520;28;20116;-56
2021/10/16 04:38:26;;;;;;;11.73;8.07;;;;;;;;;;5048249;28;20483;-56
2021/10/16 04:40:59;;;;;;;12.85;10.73;;;;;;;;;;5074468;28;20029;-56
2021/10/16 04:43:41;;;;;;;13.23;11.77;;;;;;;;;;5075666;28;20525;-56
2021/10/16 04:46:45;;;;;;;17.75;12.40;;;;;;;;;;5075833;28;20032;-56
2021/10/16 04:49:30;;;;;;;12.88;11.57;;;;;;;;;;5046516;28;20036;-56
2021/10/16 04:52:24;;;;;;;11.20;10.00;;;;;;;;;;5074812;28;20039;-56
2021/10/16 04:55:31;;;;;;;11.60;10.40;;;;;;;;;;5057720;28;20410;-56
2021/10/16 04:58:06;;;;;;;13.43;11.43;;;;;;;;;;5036699;28;20052;-56
2021/10/16 05:10:01;;;;;;;14.00;10.63;;;;;;;;;;4997441;28;20118;-57
2021/10/16 05:12:27;;;;;;;12.02;10.70;;;;;;;;;;5037686;28;20028;-56
2021/10/16 05:14:56;;;;;;;11.15;8.50;;;;;;;;;;5075163;28;20466;-57
2021/10/16 05:20:51;;;;;;;9.20;7.70;;;;;;;;;;5011535;28;20038;-56
2021/10/16 05:30:15;;;;;;;12.60;7.80;;;;;;;;;;5022902;28;20481;-56
2021/10/16 05:39:35;;;;;;;8.85;7.63;;;;;;;;;;4989680;28;20467;-56
2021/10/16 05:42:17;;;;;;;12.95;9.65;;;;;;;;;;5013043;28;20029;-55
2021/10/16 05:44:55;;;;;;;10.57;8.18;;;;;;;;;;5047382;28;20554;-56
2021/10/16 05:47:36;;;;;;;11.27;7.63;;;;;;;;;;5036059;28;20045;-57
2021/10/16 05:50:09;;;;;;;9.95;8.93;;;;;;;;;;5049456;28;20029;-56
2021/10/16 05:53:08;;;;;;;10.55;8.15;;;;;;;;;;5090437;28;20528;-56
2021/10/16 05:55:43;;;;;;;10.18;8.48;;;;;;;;;;5042027;28;20068;-56
2021/10/16 05:58:39;;;;;;;11.05;8.75;;;;;;;;;;5073685;28;20373;-57
2021/10/16 06:01:22;;;;;;;9.45;8.07;;;;;;;;;;5073353;28;20419;-56
2021/10/16 06:04:07;;;;;;;12.57;8.98;;;;;;;;;;5074930;28;20046;-56
2021/10/16 06:06:59;;;;;;;8.82;7.70;;;;;;;;;;5089589;28;20032;-56
2021/10/16 06:09:50;;;;;;;12.93;9.27;;;;;;;;;;5074412;28;20094;-57
2021/10/16 06:12:51;;;;;;;12.65;8.35;;;;;;;;;;5075124;28;20443;-56
2021/10/16 06:15:42;;;;;;;15.27;9.02;;;;;;;;;;5005440;28;20040;-56
2021/10/16 06:18:47;;;;;;;11.02;8.82;;;;;;;;;;5055498;28;20470;-56
2021/10/16 06:22:03;;;;;;;11.32;9.80;;;;;;;;;;5053655;28;20041;-57
2021/10/16 06:24:53;;;;;;;12.40;9.80;;;;;;;;;;5052380;28;20033;-56
2021/10/16 06:27:49;;;;;;;10.27;8.90;;;;;;;;;;5035025;28;20098;-57
2021/10/16 06:36:27;;;;;;;10.70;9.38;;;;;;;;;;5074806;28;20102;-57
2021/10/16 06:42:11;;;;;;;11.15;8.98;;;;;;;;;;5065462;28;20056;-57
2021/10/16 06:44:42;;;;;;;11.27;9.23;;;;;;;;;;5074105;28;20078;-58
2021/10/16 06:47:42;;;;;;;9.95;8.95;;;;;;;;;;5073691;28;20158;-58
2021/10/16 06:53:22;;;;;;;12.38;9.50;;;;;;;;;;5060224;28;20439;-59
2021/10/16 06:56:14;;;;;;;13.98;11.00;;;;;;;;;;5076328;28;20109;-58
2021/10/16 06:58:55;;;;;;;13.00;10.23;;;;;;;;;;5071380;28;20414;-58
2021/10/16 07:01:32;;;;;;;13.57;10.73;;;;;;;;;;5073646;28;20086;-58
2021/10/16 07:04:33;;;;;;;;;;;;;;;;;;;;;
2021/10/16 07:07:07;;;;;;;16.17;11.48;;;;;;;;;;5072053;28;20389;-58
2021/10/16 07:09:54;;;;;;;15.02;11.38;;;;;;;;;;5072646;28;20138;-59
2021/10/16 07:15:38;;;;;;;15.90;12.45;;;;;;;;;;5070491;28;20039;-58
2021/10/16 07:21:15;;;;;;;19.23;11.65;;;;;;;;;;5072795;28;20055;-59
2021/10/16 07:26:49;;;;;;;11.80;10.23;;;;;;;;;;5056193;28;20033;-59
2021/10/16 07:29:53;;;;;;;14.43;10.38;;;;;;;;;;5067254;28;20467;-58
2021/10/16 07:32:41;;;;;;;16.38;11.93;;;;;;;;;;5063444;28;20033;-59
2021/10/16 07:35:34;;;;;;;15.88;11.73;;;;;;;;;;5053122;28;20021;-58
2021/10/16 07:38:24;;;;;;;15.43;11.68;;;;;;;;;;5070060;28;20379;-58
2021/10/16 07:43:51;;;;;;;17.17;13.63;;;;;;;;;;5072802;28;20472;-59
2021/10/16 07:46:29;;;;;;;17.55;14.88;;;;;;;;;;5053783;28;20064;-58
2021/10/16 07:49:01;;;;;;;21.88;16.98;;;;;;;;;;5071447;28;20482;-58
2021/10/16 07:52:34;;;;;;;19.23;15.85;;;;;;;;;;5053011;28;20414;-59
2021/10/16 07:57:51;;;;;;;;;;;;;;;;;;;;;
2021/10/16 08:00:46;;;;;;;15.00;12.10;;;;;;;;;;5065258;28;20037;-59
2021/10/16 08:03:15;;;;;;;14.23;11.20;;;;;;;;;;5087847;28;20283;-59
2021/10/16 08:05:56;;;;;;;12.70;10.32;;;;;;;;;;5072320;28;20073;-59
2021/10/16 08:08:44;;;;;;;12.13;10.57;;;;;;;;;;5087368;28;20024;-59
2021/10/16 08:11:27;;;;;;;13.50;12.00;;;;;;;;;;5071931;28;20036;-60
2021/10/16 08:13:56;;;;;;;15.15;11.48;;;;;;;;;;5052146;28;20024;-60
2021/10/16 08:16:23;;;;;;;17.53;11.13;;;;;;;;;;5049663;28;20025;-59
2021/10/16 08:19:27;;;;;;;12.80;11.20;;;;;;;;;;5069485;28;20295;-59
2021/10/16 08:22:15;;;;;;;15.27;12.07;;;;;;;;;;5053431;28;20439;-58
2021/10/16 08:24:43;;;;;;;14.55;12.38;;;;;;;;;;5065638;28;20028;-59
2021/10/16 08:27:22;;;;;;;15.87;13.87;;;;;;;;;;5053567;28;20506;-58
2021/10/16 08:32:48;;;;;;;25.40;16.67;;;;;;;;;;5067789;28;20020;-59
2021/10/16 08:35:26;;;;;;;27.70;17.00;;;;;;;;;;5074524;28;20074;-58
2021/10/16 08:38:04;;;;;;;24.13;16.55;;;;;;;;;;5052213;28;20050;-58
2021/10/16 08:41:02;;;;;;;32.72;18.60;;;;;;;;;;5071324;28;20021;-58
2021/10/16 08:43:45;;;;;;;31.50;22.42;;;;;;;;;;5074582;28;20300;-59
2021/10/16 08:49:31;;;;;;;27.25;19.35;;;;;;;;;;5063031;28;20029;-59
2021/10/16 08:52:13;;;;;;;32.88;21.48;;;;;;;;;;5063407;28;20042;-59
2021/10/16 08:54:43;;;;;;;23.67;16.85;;;;;;;;;;5048139;28;20069;-59
2021/10/16 08:57:24;;;;;;;27.40;17.02;;;;;;;;;;5064300;28;20052;-58
2021/10/16 08:59:50;;;;;;;24.95;17.02;;;;;;;;;;5052823;28;20120;-58
2021/10/16 09:03:00;;;;;;;21.15;16.40;;;;;;;;;;5071062;28;20359;-59
2021/10/16 09:05:46;;;;;;;21.20;15.43;;;;;;;;;;4971254;28;20034;-59
2021/10/16 09:08:36;;;;;;;21.83;14.65;;;;;;;;;;5039601;28;20036;-59
2021/10/16 09:11:37;;;;;;;25.83;15.98;;;;;;;;;;5071143;28;20017;-59
2021/10/16 09:14:10;;;;;;;24.15;17.85;;;;;;;;;;5069863;28;20765;-59
2021/10/16 09:16:53;;;;;;;22.15;18.20;;;;;;;;;;5069768;28;20359;-60
2021/10/16 09:19:42;;;;;;;27.77;18.83;;;;;;;;;;5070005;28;20123;-59
2021/10/16 09:22:22;;;;;;;23.88;17.98;;;;;;;;;;5067581;28;20424;-59
2021/10/16 09:25:20;;;;;;;30.08;17.42;;;;;;;;;;5074265;28;20442;-59
2021/10/16 09:28:57;;;;;;;25.95;17.70;;;;;;;;;;5072232;28;20036;-59
2021/10/16 09:37:22;;;;;;;27.98;16.33;;;;;;;;;;5067849;28;20608;-59
2021/10/16 09:40:14;;;;;;;24.30;16.45;;;;;;;;;;5054494;28;20048;-59
2021/10/16 09:43:00;;;;;;;;;;;;;;;;;;;;;
2021/10/16 09:45:35;;;;;;;22.10;16.83;;;;;;;;;;5061791;28;20043;-59
2021/10/16 09:48:05;;;;;;;19.60;15.32;;;;;;;;;;5046344;28;20517;-59
2021/10/16 09:50:41;;;;;;;24.08;15.45;;;;;;;;;;5074211;28;20059;-59
2021/10/16 09:53:32;;;;;;;20.95;16.10;;;;;;;;;;5074252;28;20023;-59
2021/10/16 09:57:10;;;;;;;;;;;;;;;;;;;;;
2021/10/16 09:59:29;;;;;;;19.75;16.13;;;;;;;;;;5072647;28;20093;-59
2021/10/16 10:02:07;;;;;;;19.40;15.57;;;;;;;;;;5070950;28;20045;-57
2021/10/16 10:05:05;;;;;;;22.83;16.33;;;;;;;;;;5067816;28;20035;-59
2021/10/16 10:08:11;;;;;;;21.27;15.68;;;;;;;;;;5070485;28;20388;-59
2021/10/16 10:10:49;;;;;;;25.88;17.70;;;;;;;;;;5049965;28;20029;-59
2021/10/16 10:13:28;;;;;;;24.77;18.73;;;;;;;;;;5072028;28;20541;-59
2021/10/16 10:16:16;;;;;;;22.13;16.58;;;;;;;;;;5051501;28;20478;-59
2021/10/16 10:19:21;;;;;;;;;;;;;;;;;;;;;
2021/10/16 10:22:08;;;;;;;24.52;17.23;;;;;;;;;;5042661;28;20033;-58
2021/10/16 10:25:21;;;;;;;27.42;18.48;;;;;;;;;;5076490;28;20214;-58
2021/10/16 10:28:02;;;;;;;;;;;;;;;;;;;;;
2021/10/16 10:30:52;;;;;;;30.95;19.45;;;;;;;;;;5074268;28;20032;-58
2021/10/16 10:39:42;;;;;;;28.80;19.63;;;;;;;;;;5037349;28;20036;-58
2021/10/16 10:42:08;;;;;;;;;;;;;;;;;;5070293;28;20475;-57
2021/10/16 10:44:53;;;;;;;22.05;15.80;;;;;;;;;;5064220;28;20047;-58
2021/10/16 10:51:10;;;;;;;24.70;16.10;;;;;;;;;;5063088;28;20111;-58
2021/10/16 10:53:50;;;;;;;17.83;15.52;;;;;;;;;;5075727;28;20020;-58
2021/10/16 10:56:26;;;;;;;;;;;;;;;;;;5071921;28;20024;-58
2021/10/16 10:59:14;;;;;;;;;;;;;;;;;;;;;
2021/10/16 11:01:53;;;;;;;22.70;16.20;;;;;;;;;;5076103;28;20036;-59
2021/10/16 11:04:38;;;;;;;17.48;14.52;;;;;;;;;;5057429;28;20043;-58
2021/10/16 11:07:30;;;;;;;22.33;15.55;;;;;;;;;;5054810;28;20036;-58
2021/10/16 11:10:08;;;;;;;17.70;14.35;;;;;;;;;;5074055;28;20133;-58
2021/10/16 11:12:47;;;;;;;22.25;15.40;;;;;;;;;;5069168;28;20062;-58
2021/10/16 11:15:33;;;;;;;17.27;13.60;;;;;;;;;;5053834;28;20086;-58
2021/10/16 11:18:17;;;;;;;18.77;15.18;;;;;;;;;;5064836;28;20055;-58
2021/10/16 11:20:48;;;;;;;18.48;15.73;;;;;;;;;;5054046;28;20024;-58
2021/10/16 11:23:49;;;;;;;;;;;;;;;;;;;;;
2021/10/16 11:29:48;;;;;;;17.58;12.77;;;;;;;;;;5063266;28;20101;-57
2021/10/16 11:32:31;;;;;;;16.63;14.25;;;;;;;;;;5073525;28;20035;-58
2021/10/16 11:35:01;;;;;;;16.73;14.15;;;;;;;;;;5049917;28;20146;-58
2021/10/16 11:38:08;;;;;;;16.70;14.30;;;;;;;;;;5076332;28;20082;-57
2021/10/16 11:43:49;;;;;;;16.15;13.85;;;;;;;;;;5056164;28;20078;-58
2021/10/16 11:46:30;;;;;;;17.63;12.95;;;;;;;;;;5068128;28;20469;-58
2021/10/16 11:48:58;;;;;;;;;;;;;;;;;;5058339;28;20450;-58
2021/10/16 11:51:53;;;;;;;18.33;14.18;;;;;;;;;;5067321;28;20349;-57
2021/10/16 11:54:41;;;;;;;14.38;12.85;;;;;;;;;;5070519;28;20128;-58
2021/10/16 11:57:16;;;;;;;17.67;14.10;;;;;;;;;;5069590;28;20029;-58
2021/10/16 11:59:48;;;;;;;15.23;13.60;;;;;;;;;;5068707;28;20040;-58
2021/10/16 12:02:42;;;;;;;18.13;14.23;;;;;;;;;;5071124;28;20039;-57
2021/10/16 12:05:28;;;;;;;15.15;13.55;;;;;;;;;;5048678;28;20021;-58
2021/10/16 12:07:56;;;;;;;16.13;13.80;;;;;;;;;;5047654;28;20429;-57
2021/10/16 12:10:25;;;;;;;13.73;12.27;;;;;;;;;;5055632;28;20025;-58
2021/10/16 12:13:20;;;;;;;15.50;12.68;;;;;;;;;;5062969;28;20040;-57
2021/10/16 12:19:17;;;;;;;13.80;12.40;;;;;;;;;;5066782;28;20055;-58
2021/10/16 12:21:58;;;;;;;15.93;12.75;;;;;;;;;;5005484;28;20416;-58
2021/10/16 12:24:35;;;;;;;19.33;13.88;;;;;;;;;;5006512;28;20527;-58
2021/10/16 12:27:20;;;;;;;17.13;13.30;;;;;;;;;;5049720;28;20056;-58
2021/10/16 12:30:06;;;;;;;14.02;12.52;;;;;;;;;;5050528;28;20054;-58
2021/10/16 12:32:41;;;;;;;17.30;12.27;;;;;;;;;;5052362;28;20032;-57
2021/10/16 12:35:33;;;;;;;14.73;13.20;;;;;;;;;;5072077;28;20020;-59
2021/10/16 12:38:21;;;;;;;14.10;12.65;;;;;;;;;;5017137;28;20819;-58
2021/10/16 12:41:00;;;;;;;16.42;12.32;;;;;;;;;;5066273;28;20059;-59
2021/10/16 12:44:01;;;;;;;18.17;12.15;;;;;;;;;;5070300;28;20037;-58
2021/10/16 12:46:50;;;;;;;12.93;11.57;;;;;;;;;;5071396;28;20020;-59
2021/10/16 12:49:44;;;;;;;15.13;11.82;;;;;;;;;;5051633;28;20022;-59
2021/10/16 12:52:33;;;;;;;14.52;11.43;;;;;;;;;;5069642;28;20123;-59
2021/10/16 12:55:18;;;;;;;12.27;10.32;;;;;;;;;;5072701;28;20033;-58
2021/10/16 12:58:10;;;;;;;13.10;11.15;;;;;;;;;;5087149;28;20052;-59
2021/10/16 13:00:53;;;;;;;12.55;10.90;;;;;;;;;;5075148;28;20028;-59
2021/10/16 13:03:32;;;;;;;12.23;11.00;;;;;;;;;;5072366;28;20059;-59
2021/10/16 13:06:19;;;;;;;15.65;11.32;;;;;;;;;;5075128;28;20513;-58
2021/10/16 13:12:08;;;;;;;11.38;9.63;;;;;;;;;;5057476;28;20258;-59
2021/10/16 13:14:47;;;;;;;13.23;9.90;;;;;;;;;;5073454;28;20113;-59
2021/10/16 13:17:25;;;;;;;12.93;10.32;;;;;;;;;;5078492;28;20045;-59
2021/10/16 13:20:13;;;;;;;11.48;10.20;;;;;;;;;;5037568;28;20025;-59
2021/10/16 13:22:56;;;;;;;12.93;9.55;;;;;;;;;;5079782;28;20041;-59
2021/10/16 13:28:29;;;;;;;10.30;9.30;;;;;;;;;;5038653;28;20037;-59
2021/10/16 13:31:27;;;;;;;11.73;8.63;;;;;;;;;;5066557;28;20132;-59
2021/10/16 13:34:04;;;;;;;12.65;9.50;;;;;;;;;;5073871;28;20025;-59
2021/10/16 13:36:40;;;;;;;12.15;9.52;;;;;;;;;;5073538;28;20024;-59
2021/10/16 13:39:26;;;;;;;10.00;8.52;;;;;;;;;;5073964;28;20473;-59
2021/10/16 13:42:16;;;;;;;12.43;8.02;;;;;;;;;;5031837;28;20043;-59
2021/10/16 13:45:01;;;;;;;10.27;7.88;;;;;;;;;;5058158;28;20040;-59
2021/10/16 13:47:40;;;;;;;9.15;8.27;;;;;;;;;;5077627;28;20379;-59
2021/10/16 13:50:17;;;;;;;11.23;8.73;;;;;;;;;;5071261;28;20373;-59
2021/10/16 13:53:20;;;;;;;10.23;7.90;;;;;;;;;;5071167;28;20079;-59
2021/10/16 13:56:28;;;;;;;10.15;7.90;;;;;;;;;;5067591;28;20025;-59
2021/10/16 13:59:22;;;;;;;9.52;8.30;;;;;;;;;;5070060;28;20445;-59
2021/10/16 14:02:02;;;;;;;7.90;7.10;;;;;;;;;;5064731;28;20028;-59
2021/10/16 14:04:32;;;;;;;8.50;6.45;;;;;;;;;;5074008;28;20059;-59
2021/10/16 14:07:11;;;;;;;9.80;8.10;;;;;;;;;;5057050;28;20044;-59
2021/10/16 14:09:43;;;;;;;10.00;9.02;;;;;;;;;;5048112;28;20119;-58
2021/10/16 14:12:36;;;;;;;9.30;7.65;;;;;;;;;;5074016;28;20043;-59
2021/10/16 14:15:02;;;;;;;8.90;7.90;;;;;;;;;;5071174;28;20473;-59
2021/10/16 14:17:46;;;;;;;8.73;7.63;;;;;;;;;;5072337;28;20059;-58
2021/10/16 14:20:19;;;;;;;10.20;9.07;;;;;;;;;;5052467;28;20354;-59
2021/10/16 14:23:00;;;;;;;12.95;10.40;;;;;;;;;;5072187;28;20078;-59
2021/10/16 14:28:41;;;;;;;9.75;8.35;;;;;;;;;;4995089;28;21088;-59
2021/10/16 14:31:27;;;;;;;10.80;9.43;;;;;;;;;;4945966;28;20538;-59
2021/10/16 14:34:09;;;;;;;12.70;9.57;;;;;;;;;;5037584;28;20432;-58
2021/10/16 14:36:53;;;;;;;11.73;9.32;;;;;;;;;;5060302;28;20562;-59
2021/10/16 14:39:40;;;;;;;13.13;10.48;;;;;;;;;;5072759;28;20178;-58
2021/10/16 14:42:18;;;;;;;11.18;9.35;;;;;;;;;;5052352;28;20826;-59
2021/10/16 14:48:21;;;;;;;12.18;8.45;;;;;;;;;;5057338;28;20036;-58
2021/10/16 14:51:13;;;;;;;12.30;9.32;;;;;;;;;;5062087;28;20226;-58
2021/10/16 14:53:52;;;;;;;12.63;10.20;;;;;;;;;;5040730;28;20619;-58
2021/10/16 14:56:48;;;;;;;12.43;10.48;;;;;;;;;;5066784;28;20031;-58
2021/10/16 14:59:20;;;;;;;10.85;9.63;;;;;;;;;;5061463;28;20048;-58
2021/10/16 15:02:07;;;;;;;12.60;10.10;;;;;;;;;;5064099;28;20036;-58
2021/10/16 15:04:51;;;;;;;10.13;9.07;;;;;;;;;;5066022;28;20378;-58
2021/10/16 15:10:27;;;;;;;15.73;10.45;;;;;;;;;;5048114;28;20025;-58
2021/10/16 15:13:16;;;;;;;11.95;9.85;;;;;;;;;;5065940;28;20473;-59
2021/10/16 15:16:01;;;;;;;9.77;8.80;;;;;;;;;;5068763;28;20045;-58
2021/10/16 15:22:00;;;;;;;12.63;9.50;;;;;;;;;;5064733;28;20036;-59
2021/10/16 15:27:59;;;;;;;10.82;9.35;;;;;;;;;;5062606;28;20040;-59
2021/10/16 15:30:33;;;;;;;13.87;9.60;;;;;;;;;;5042740;28;20036;-59
2021/10/16 15:33:00;;;;;;;15.90;10.85;;;;;;;;;;5078200;28;20486;-59
2021/10/16 15:35:39;;;;;;;12.57;10.23;;;;;;;;;;5061703;28;20044;-59
2021/10/16 15:38:32;;;;;;;14.17;9.97;;;;;;;;;;5043855;28;20447;-59
2021/10/16 15:41:11;;;;;;;;;;;;;;;;;;;;;
2021/10/16 15:43:47;;;;;;;10.45;9.45;;;;;;;;;;5056015;28;20040;-59
2021/10/16 15:49:22;;;;;;;11.15;9.63;;;;;;;;;;5064589;28;20456;-60
2021/10/16 15:58:25;;;;;;;12.05;9.90;;;;;;;;;;4998362;28;20053;-57
2021/10/16 16:01:20;;;;;;;;;;;;;;;;;;;;;
2021/10/16 16:04:08;;;;;;;12.65;9.95;;;;;;;;;;5071580;28;20036;-60
2021/10/16 16:06:58;;;;;;;11.32;10.18;;;;;;;;;;5043618;28;20029;-60
2021/10/16 16:09:48;;;;;;;13.65;9.60;;;;;;;;;;5070368;28;20508;-59
2021/10/16 16:12:29;;;;;;;12.82;9.63;;;;;;;;;;5054321;28;20032;-59
2021/10/16 16:14:59;;;;;;;13.00;10.63;;;;;;;;;;5082466;28;20039;-59
2021/10/16 16:17:34;;;;;;;11.73;9.87;;;;;;;;;;5076200;28;20036;-60
2021/10/16 16:20:11;;;;;;;13.43;9.82;;;;;;;;;;5089930;28;20282;-59
2021/10/16 16:22:57;;;;;;;13.65;10.60;;;;;;;;;;5089954;28;20465;-59
2021/10/16 16:25:35;;;;;;;10.45;9.07;;;;;;;;;;5068766;28;20499;-59
2021/10/16 16:28:07;;;;;;;11.35;10.05;;;;;;;;;;5071451;28;20383;-59
2021/10/16 16:30:45;;;;;;;13.00;9.25;;;;;;;;;;5067536;28;20054;-59
2021/10/16 16:33:24;;;;;;;13.57;10.25;;;;;;;;;;5072013;28;20056;-59
2021/10/16 16:36:00;;;;;;;11.00;9.77;;;;;;;;;;5075684;28;20027;-59
2021/10/16 16:38:37;;;;;;;14.07;11.07;;;;;;;;;;5070624;28;20534;-60
2021/10/16 16:41:19;;;;;;;16.02;11.38;;;;;;;;;;5078720;28;20035;-59
2021/10/16 16:43:58;;;;;;;14.85;10.98;;;;;;;;;;5066980;28;20092;-59
2021/10/16 16:46:44;;;;;;;12.90;10.43;;;;;;;;;;5033303;28;20152;-59
2021/10/16 16:52:29;;;;;;;13.20;11.43;;;;;;;;;;5061180;28;20045;-59
2021/10/16 16:55:21;;;;;;;12.80;11.32;;;;;;;;;;4963346;28;20050;-59
2021/10/16 16:58:25;;;;;;;19.35;12.95;;;;;;;;;;4983624;28;20505;-59
2021/10/16 17:01:07;;;;;;;;;;;;;;;;;;;;;
2021/10/16 17:03:58;;;;;;;;;;;;;;;;;;;;;
2021/10/16 17:06:50;;;;;;;;;;;;;;;;;;;;;
2021/10/16 17:09:23;;;;;;;22.48;14.20;;;;;;;;;;5081318;28;20046;-59
2021/10/16 17:12:20;;;;;;;17.83;14.10;;;;;;;;;;5074755;28;20208;-60
2021/10/16 17:15:03;;;;;;;17.17;14.52;;;;;;;;;;5053404;28;20025;-59
2021/10/16 17:18:08;;;;;;;16.40;14.75;;;;;;;;;;5069174;28;20365;-59
2021/10/16 17:20:44;;;;;;;17.88;14.73;;;;;;;;;;5025394;28;20071;-59
2021/10/16 17:23:26;;;;;;;18.63;15.65;;;;;;;;;;5065643;28;20695;-58
2021/10/16 17:26:18;;;;;;;16.65;14.88;;;;;;;;;;5056618;28;20039;-58
2021/10/16 17:28:52;;;;;;;22.77;14.90;;;;;;;;;;5081698;28;20035;-58
2021/10/16 17:31:37;;;;;;;;;;;;;;;;;;;;;
2021/10/16 17:34:35;;;;;;;18.58;15.10;;;;;;;;;;5077516;28;20047;-58
2021/10/16 17:37:33;;;;;;;;;;;;;;;;;;;;;
2021/10/16 17:40:27;;;;;;;;;;;;;;;;;;;;;
2021/10/16 17:43:12;;;;;;;21.20;16.00;;;;;;;;;;5062823;28;20050;-58
2021/10/16 17:45:51;;;;;;;18.70;15.13;;;;;;;;;;5041595;28;20048;-58
2021/10/16 17:48:26;;;;;;;15.05;13.50;;;;;;;;;;5066269;28;20115;-58
2021/10/16 17:51:04;;;;;;;19.00;15.20;;;;;;;;;;5075290;28;20090;-58
2021/10/16 17:53:56;;;;;;;18.40;14.45;;;;;;;;;;5053309;28;20180;-58
2021/10/16 17:56:38;;;;;;;18.67;14.93;;;;;;;;;;5058971;28;20037;-58
2021/10/16 17:59:39;;;;;;;21.33;15.93;;;;;;;;;;5073911;28;20037;-58
2021/10/16 18:02:31;;;;;;;17.10;14.30;;;;;;;;;;5040687;28;20036;-58
2021/10/16 18:05:06;;;;;;;18.90;14.32;;;;;;;;;;5037984;28;20105;-58
2021/10/16 18:07:32;;;;;;;17.77;15.63;;;;;;;;;;5073682;28;20033;-58
2021/10/16 18:10:00;;;;;;;18.48;14.05;;;;;;;;;;5073240;28;20034;-58
2021/10/16 18:13:10;;;;;;;17.95;14.25;;;;;;;;;;5074126;28;20492;-58
2021/10/16 18:16:05;;;;;;;18.33;16.43;;;;;;;;;;5010322;28;20189;-58
2021/10/16 18:18:34;;;;;;;19.48;16.48;;;;;;;;;;5030965;28;20123;-58
2021/10/16 18:21:16;;;;;;;19.23;16.95;;;;;;;;;;5034274;28;20051;-58
2021/10/16 18:23:51;;;;;;;19.65;16.15;;;;;;;;;;5052266;28;20389;-58
2021/10/16 18:26:37;;;;;;;19.83;16.98;;;;;;;;;;5066242;28;20691;-58
2021/10/16 18:32:20;;;;;;;21.83;18.15;;;;;;;;;;5076719;28;20101;-59
2021/10/16 18:34:46;;;;;;;20.35;18.13;;;;;;;;;;5051490;28;20032;-59
2021/10/16 18:37:21;;;;;;;23.73;18.02;;;;;;;;;;5083403;28;20396;-59
2021/10/16 18:39:56;;;;;;;21.00;17.60;;;;;;;;;;5062278;28;20028;-58
2021/10/16 18:42:37;;;;;;;21.10;16.83;;;;;;;;;;5072741;28;20483;-59
2021/10/16 18:45:33;;;;;;;21.83;16.50;;;;;;;;;;5073705;28;20543;-58
2021/10/16 18:48:21;;;;;;;21.38;16.65;;;;;;;;;;5079675;28;20190;-58
2021/10/16 18:51:04;;;;;;;22.58;16.73;;;;;;;;;;5084956;28;20530;-58
2021/10/16 18:54:01;;;;;;;20.70;15.95;;;;;;;;;;5041359;28;20437;-57
2021/10/16 18:57:05;;;;;;;24.27;18.10;;;;;;;;;;5091376;28;20032;-58
2021/10/16 18:59:34;;;;;;;21.05;17.55;;;;;;;;;;5054079;28;20128;-58
2021/10/16 19:02:18;;;;;;;19.50;16.38;;;;;;;;;;5074077;28;20410;-58
2021/10/16 19:05:05;;;;;;;20.65;14.85;;;;;;;;;;5083802;28;20438;-59